sensor_id;sensor_type;location;lat;lon;timestamp;pressure;altitude;pressure_sealevel;temperature;humidity
37758;BME280;23599;50.304;18.928;2022-10-13T00:00:06;102633.02;;;8.45;68.69
37758;BME280;23599;50.304;18.928;2022-10-13T00:00:21;102635.73;;;8.45;68.69
37758;BME280;23599;50.304;18.928;2022-10-13T00:00:28;102629.45;;;8.44;68.68
37758;BME280;23599;50.304;18.928;2022-10-13T00:00:46;102635.73;;;8.45;68.68
37758;BME280;23599;50.304;18.928;2022-10-13T00:01:11;102628.58;;;8.44;68.64
37758;BME280;23599;50.304;18.928;2022-10-13T00:01:25;102631.29;;;8.44;68.59
37758;BME280;23599;50.304;18.928;2022-10-13T00:01:38;102628.58;;;8.44;68.58
37758;BME280;23599;50.304;18.928;2022-10-13T00:01:43;102627.70;;;8.43;68.63
37758;BME280;23599;50.304;18.928;2022-10-13T00:01:58;102629.45;;;8.44;68.52
37758;BME280;23599;50.304;18.928;2022-10-13T00:02:12;102627.70;;;8.43;68.48
37758;BME280;23599;50.304;18.928;2022-10-13T00:02:25;102624.13;;;8.43;68.56
37758;BME280;23599;50.304;18.928;2022-10-13T00:02:37;102624.13;;;8.43;68.46
37758;BME280;23599;50.304;18.928;2022-10-13T00:02:51;102629.54;;;8.43;68.44
37758;BME280;23599;50.304;18.928;2022-10-13T00:03:04;102628.64;;;8.42;68.39
37758;BME280;23599;50.304;18.928;2022-10-13T00:03:17;102624.20;;;8.41;68.35
37758;BME280;23599;50.304;18.928;2022-10-13T00:03:30;102627.77;;;8.42;68.34
37758;BME280;23599;50.304;18.928;2022-10-13T00:03:31;102630.48;;;8.42;68.27
37758;BME280;23599;50.304;18.928;2022-10-13T00:03:45;102626.91;;;8.41;68.32
37758;BME280;23599;50.304;18.928;2022-10-13T00:03:58;102627.88;;;8.40;68.31
37758;BME280;23599;50.304;18.928;2022-10-13T00:04:11;102632.33;;;8.41;68.31
37758;BME280;23599;50.304;18.928;2022-10-13T00:04:25;102628.75;;;8.41;68.30
37758;BME280;23599;50.304;18.928;2022-10-13T00:04:38;102628.89;;;8.38;68.17
37758;BME280;23599;50.304;18.928;2022-10-13T00:04:51;102623.40;;;8.39;68.28
37758;BME280;23599;50.304;18.928;2022-10-13T00:04:56;102622.50;;;8.39;68.00
37758;BME280;23599;50.304;18.928;2022-10-13T00:05:09;102633.30;;;8.40;68.26
37758;BME280;23599;50.304;18.928;2022-10-13T00:05:23;102630.63;;;8.39;68.22
37758;BME280;23599;50.304;18.928;2022-10-13T00:05:41;102624.34;;;8.38;68.19
37758;BME280;23599;50.304;18.928;2022-10-13T00:05:55;102622.57;;;8.37;68.04
37758;BME280;23599;50.304;18.928;2022-10-13T00:06:09;102622.57;;;8.37;68.16
37758;BME280;23599;50.304;18.928;2022-10-13T00:06:25;102628.89;;;8.38;68.13
37758;BME280;23599;50.304;18.928;2022-10-13T00:06:38;102625.28;;;8.37;68.09
37758;BME280;23599;50.304;18.928;2022-10-13T00:06:40;102623.55;;;8.36;68.09
37758;BME280;23599;50.304;18.928;2022-10-13T00:06:53;102625.38;;;8.35;68.04
37758;BME280;23599;50.304;18.928;2022-10-13T00:07:06;102623.55;;;8.36;67.99
37758;BME280;23599;50.304;18.928;2022-10-13T00:07:20;102623.62;;;8.34;67.95
37758;BME280;23599;50.304;18.928;2022-10-13T00:07:33;102625.45;;;8.34;67.93
37758;BME280;23599;50.304;18.928;2022-10-13T00:07:37;102620.13;;;8.32;67.88
37758;BME280;23599;50.304;18.928;2022-10-13T00:07:51;102629.03;;;8.34;67.89
37758;BME280;23599;50.304;18.928;2022-10-13T00:08:04;102623.72;;;8.33;67.87
37758;BME280;23599;50.304;18.928;2022-10-13T00:08:19;102615.77;;;8.30;68.00
37758;BME280;23599;50.304;18.928;2022-10-13T00:08:35;102622.92;;;8.31;67.79
37758;BME280;23599;50.304;18.928;2022-10-13T00:08:48;102622.05;;;8.30;67.76
37758;BME280;23599;50.304;18.928;2022-10-13T00:08:53;102621.18;;;8.30;67.91
37758;BME280;23599;50.304;18.928;2022-10-13T00:08:59;102618.47;;;8.30;67.69
37758;BME280;23599;50.304;18.928;2022-10-13T00:09:04;102620.31;;;8.29;67.69
37758;BME280;23599;50.304;18.928;2022-10-13T00:09:17;102623.02;;;8.29;67.74
37758;BME280;23599;50.304;18.928;2022-10-13T00:09:30;102620.38;;;8.28;67.70
37758;BME280;23599;50.304;18.928;2022-10-13T00:09:43;102622.23;;;8.27;67.69
37758;BME280;23599;50.304;18.928;2022-10-13T00:09:45;102626.77;;;8.27;67.69
37758;BME280;23599;50.304;18.928;2022-10-13T00:09:58;102623.17;;;8.26;67.68
37758;BME280;23599;50.304;18.928;2022-10-13T00:10:11;102622.29;;;8.26;67.68
37758;BME280;23599;50.304;18.928;2022-10-13T00:10:24;102625.00;;;8.26;67.67
37758;BME280;23599;50.304;18.928;2022-10-13T00:10:38;102621.50;;;8.24;67.64
37758;BME280;23599;50.304;18.928;2022-10-13T00:10:51;102623.44;;;8.22;67.63
37758;BME280;23599;50.304;18.928;2022-10-13T00:11:12;102627.02;;;8.22;67.61
37758;BME280;23599;50.304;18.928;2022-10-13T00:11:27;102618.97;;;8.21;67.61
37758;BME280;23599;50.304;18.928;2022-10-13T00:11:41;102625.43;;;8.18;67.57
37758;BME280;23599;50.304;18.928;2022-10-13T00:11:57;102619.99;;;8.18;67.54
37758;BME280;23599;50.304;18.928;2022-10-13T00:12:10;102622.81;;;8.17;67.51
37758;BME280;23599;50.304;18.928;2022-10-13T00:12:23;102621.92;;;8.16;67.49
37758;BME280;23599;50.304;18.928;2022-10-13T00:12:27;102622.89;;;8.15;67.37
37758;BME280;23599;50.304;18.928;2022-10-13T00:12:42;102621.05;;;8.16;67.49
37758;BME280;23599;50.304;18.928;2022-10-13T00:12:55;102621.14;;;8.14;67.47
37758;BME280;23599;50.304;18.928;2022-10-13T00:12:56;102618.45;;;8.14;67.47
37758;BME280;23599;50.304;18.928;2022-10-13T00:13:01;102631.09;;;8.13;67.47
37758;BME280;23599;50.304;18.928;2022-10-13T00:13:14;102618.52;;;8.12;67.47
37758;BME280;23599;50.304;18.928;2022-10-13T00:13:29;102627.60;;;8.11;67.51
37758;BME280;23599;50.304;18.928;2022-10-13T00:13:44;102636.67;;;8.10;67.55
37758;BME280;23599;50.304;18.928;2022-10-13T00:14:00;102625.84;;;8.10;67.59
37758;BME280;23599;50.304;18.928;2022-10-13T00:14:14;102635.81;;;8.10;67.62
37758;BME280;23599;50.304;18.928;2022-10-13T00:14:27;102629.52;;;8.09;67.65
37758;BME280;23599;50.304;18.928;2022-10-13T00:14:39;102626.88;;;8.08;67.71
37758;BME280;23599;50.304;18.928;2022-10-13T00:14:52;102632.40;;;8.06;67.79
37758;BME280;23599;50.304;18.928;2022-10-13T00:15:07;102624.27;;;8.06;67.87
37758;BME280;23599;50.304;18.928;2022-10-13T00:15:20;102625.21;;;8.05;67.95
37758;BME280;23599;50.304;18.928;2022-10-13T00:15:38;102625.21;;;8.05;68.00
37758;BME280;23599;50.304;18.928;2022-10-13T00:15:51;102637.02;;;8.04;68.04
37758;BME280;23599;50.304;18.928;2022-10-13T00:16:07;102633.50;;;8.02;68.06
37758;BME280;23599;50.304;18.928;2022-10-13T00:16:11;102625.48;;;8.01;68.07
37758;BME280;23599;50.304;18.928;2022-10-13T00:16:26;102627.22;;;8.02;68.13
37758;BME280;23599;50.304;18.928;2022-10-13T00:16:40;102626.34;;;8.01;68.21
37758;BME280;23599;50.304;18.928;2022-10-13T00:16:54;102620.07;;;8.01;68.31
37758;BME280;23599;50.304;18.928;2022-10-13T00:17:06;102634.47;;;8.01;68.38
37758;BME280;23599;50.304;18.928;2022-10-13T00:17:19;102629.99;;;8.00;68.45
37758;BME280;23599;50.304;18.928;2022-10-13T00:17:32;102630.90;;;8.01;68.50
37758;BME280;23599;50.304;18.928;2022-10-13T00:17:47;102630.97;;;7.99;68.56
37758;BME280;23599;50.304;18.928;2022-10-13T00:18:01;102629.05;;;8.01;68.62
37758;BME280;23599;50.304;18.928;2022-10-13T00:18:15;102623.72;;;8.00;68.69
37758;BME280;23599;50.304;18.928;2022-10-13T00:18:28;102624.59;;;8.00;68.76
37758;BME280;23599;50.304;18.928;2022-10-13T00:18:41;102625.48;;;8.01;68.84
37758;BME280;23599;50.304;18.928;2022-10-13T00:18:54;102624.59;;;8.00;68.92
37758;BME280;23599;50.304;18.928;2022-10-13T00:19:07;102623.72;;;8.00;68.97
37758;BME280;23599;50.304;18.928;2022-10-13T00:19:09;102623.72;;;8.00;69.00
37758;BME280;23599;50.304;18.928;2022-10-13T00:19:12;102629.23;;;7.98;69.03
37758;BME280;23599;50.304;18.928;2022-10-13T00:19:27;102624.59;;;8.00;69.05
37758;BME280;23599;50.304;18.928;2022-10-13T00:19:42;102628.19;;;8.01;69.10
37758;BME280;23599;50.304;18.928;2022-10-13T00:19:57;102624.59;;;8.00;69.18
37758;BME280;23599;50.304;18.928;2022-10-13T00:20:10;102627.28;;;8.00;69.23
37758;BME280;23599;50.304;18.928;2022-10-13T00:20:23;102630.90;;;8.01;69.30
37758;BME280;23599;50.304;18.928;2022-10-13T00:20:40;102629.99;;;8.00;69.34
37758;BME280;23599;50.304;18.928;2022-10-13T00:20:56;102630.90;;;8.01;69.38
37758;BME280;23599;50.304;18.928;2022-10-13T00:21:11;102629.99;;;8.00;69.42
37758;BME280;23599;50.304;18.928;2022-10-13T00:21:25;102619.16;;;8.00;69.47
37758;BME280;23599;50.304;18.928;2022-10-13T00:21:30;102623.65;;;8.01;69.49
37758;BME280;23599;50.304;18.928;2022-10-13T00:21:44;102626.34;;;8.01;69.50
37758;BME280;23599;50.304;18.928;2022-10-13T00:21:57;102624.59;;;8.00;69.55
37758;BME280;23599;50.304;18.928;2022-10-13T00:22:10;102623.65;;;8.01;69.60
37758;BME280;23599;50.304;18.928;2022-10-13T00:22:23;102619.16;;;8.00;69.63
37758;BME280;23599;50.304;18.928;2022-10-13T00:22:26;102620.13;;;7.99;69.63
37758;BME280;23599;50.304;18.928;2022-10-13T00:22:40;102625.38;;;8.02;69.68
37758;BME280;23599;50.304;18.928;2022-10-13T00:22:53;102620.94;;;8.01;69.73
37758;BME280;23599;50.304;18.928;2022-10-13T00:23:06;102623.65;;;8.01;69.79
37758;BME280;23599;50.304;18.928;2022-10-13T00:23:20;102626.34;;;8.01;69.88
37758;BME280;23599;50.304;18.928;2022-10-13T00:23:34;102625.38;;;8.02;69.95
37758;BME280;23599;50.304;18.928;2022-10-13T00:23:47;102619.97;;;8.02;69.98
37758;BME280;23599;50.304;18.928;2022-10-13T00:24:01;102622.59;;;8.04;70.02
37758;BME280;23599;50.304;18.928;2022-10-13T00:24:16;102614.48;;;8.04;70.01
37758;BME280;23599;50.304;18.928;2022-10-13T00:24:29;102618.05;;;8.04;70.00
37758;BME280;23599;50.304;18.928;2022-10-13T00:24:42;102608.95;;;8.05;69.98
37758;BME280;23599;50.304;18.928;2022-10-13T00:24:55;102612.57;;;8.06;69.96
37758;BME280;23599;50.304;18.928;2022-10-13T00:25:08;102617.08;;;8.05;69.94
37758;BME280;23599;50.304;18.928;2022-10-13T00:25:22;102615.28;;;8.06;69.90
37758;BME280;23599;50.304;18.928;2022-10-13T00:25:40;102617.99;;;8.06;69.89
37758;BME280;23599;50.304;18.928;2022-10-13T00:25:45;102612.57;;;8.06;69.90
37758;BME280;23599;50.304;18.928;2022-10-13T00:26:01;102622.44;;;8.07;69.88
37758;BME280;23599;50.304;18.928;2022-10-13T00:26:15;102613.44;;;8.06;69.86
37758;BME280;23599;50.304;18.928;2022-10-13T00:26:29;102611.59;;;8.07;69.85
37758;BME280;23599;50.304;18.928;2022-10-13T00:26:42;102617.01;;;8.07;69.84
37758;BME280;23599;50.304;18.928;2022-10-13T00:26:49;102612.46;;;8.07;69.77
37758;BME280;23599;50.304;18.928;2022-10-13T00:27:03;102613.44;;;8.06;69.85
37758;BME280;23599;50.304;18.928;2022-10-13T00:27:08;102608.89;;;8.07;70.03
37758;BME280;23599;50.304;18.928;2022-10-13T00:27:22;102619.73;;;8.07;69.93
37758;BME280;23599;50.304;18.928;2022-10-13T00:27:35;102612.57;;;8.06;70.01
37758;BME280;23599;50.304;18.928;2022-10-13T00:27:47;102610.73;;;8.06;70.08
37758;BME280;23599;50.304;18.928;2022-10-13T00:28:01;102624.27;;;8.06;70.16
37758;BME280;23599;50.304;18.928;2022-10-13T00:28:06;102619.79;;;8.05;70.20
37758;BME280;23599;50.304;18.928;2022-10-13T00:28:20;102618.84;;;8.06;70.22
37758;BME280;23599;50.304;18.928;2022-10-13T00:28:33;102616.23;;;8.05;70.26
37758;BME280;23599;50.304;18.928;2022-10-13T00:28:46;102614.38;;;8.05;70.30
37758;BME280;23599;50.304;18.928;2022-10-13T00:28:49;102611.67;;;8.05;70.30
37758;BME280;23599;50.304;18.928;2022-10-13T00:29:02;102618.92;;;8.05;70.37
37758;BME280;23599;50.304;18.928;2022-10-13T00:29:15;102607.16;;;8.06;70.44
37758;BME280;23599;50.304;18.928;2022-10-13T00:29:28;102605.48;;;8.03;70.49
37758;BME280;23599;50.304;18.928;2022-10-13T00:29:41;102614.38;;;8.05;70.55
37758;BME280;23599;50.304;18.928;2022-10-13T00:29:55;102618.92;;;8.05;70.61
37758;BME280;23599;50.304;18.928;2022-10-13T00:30:08;102618.05;;;8.04;70.60
37758;BME280;23599;50.304;18.928;2022-10-13T00:30:22;102614.48;;;8.04;70.55
37758;BME280;23599;50.304;18.928;2022-10-13T00:30:36;102613.60;;;8.03;70.57
37758;BME280;23599;50.304;18.928;2022-10-13T00:30:50;102618.05;;;8.04;70.62
37758;BME280;23599;50.304;18.928;2022-10-13T00:31:29;102610.98;;;8.02;70.73
37758;BME280;23599;50.304;18.928;2022-10-13T00:31:43;102613.74;;;8.00;70.80
37758;BME280;23599;50.304;18.928;2022-10-13T00:31:56;102618.30;;;8.00;70.85
37758;BME280;23599;50.304;18.928;2022-10-13T00:31:57;102612.02;;;7.99;70.86
37758;BME280;23599;50.304;18.928;2022-10-13T00:32:12;102614.65;;;8.01;70.89
37758;BME280;23599;50.304;18.928;2022-10-13T00:32:25;102608.44;;;7.99;70.97
37758;BME280;23599;50.304;18.928;2022-10-13T00:32:38;102612.98;;;7.98;71.05
37758;BME280;23599;50.304;18.928;2022-10-13T00:32:51;102615.69;;;7.98;71.09
37758;BME280;23599;50.304;18.928;2022-10-13T00:33:04;102613.93;;;7.97;71.05
37758;BME280;23599;50.304;18.928;2022-10-13T00:33:18;102615.69;;;7.98;71.00
37758;BME280;23599;50.304;18.928;2022-10-13T00:33:32;102606.66;;;7.98;71.01
37758;BME280;23599;50.304;18.928;2022-10-13T00:33:46;102612.18;;;7.96;71.04
37758;BME280;23599;50.304;18.928;2022-10-13T00:34:01;102614.89;;;7.96;71.09
37758;BME280;23599;50.304;18.928;2022-10-13T00:34:14;102610.41;;;7.95;71.15
37758;BME280;23599;50.304;18.928;2022-10-13T00:34:27;102611.30;;;7.96;71.21
37758;BME280;23599;50.304;18.928;2022-10-13T00:34:40;102610.51;;;7.94;71.26
37758;BME280;23599;50.304;18.928;2022-10-13T00:34:53;102611.38;;;7.94;71.33
37758;BME280;23599;50.304;18.928;2022-10-13T00:35:07;102609.64;;;7.93;71.38
37758;BME280;23599;50.304;18.928;2022-10-13T00:35:08;102606.94;;;7.93;71.39
37758;BME280;23599;50.304;18.928;2022-10-13T00:35:22;102608.77;;;7.93;71.45
37758;BME280;23599;50.304;18.928;2022-10-13T00:35:44;102605.97;;;7.94;71.50
37758;BME280;23599;50.304;18.928;2022-10-13T00:35:58;102611.38;;;7.94;71.51
37758;BME280;23599;50.304;18.928;2022-10-13T00:36:11;102609.55;;;7.95;71.43
37758;BME280;23599;50.304;18.928;2022-10-13T00:36:24;102605.09;;;7.94;71.34
37758;BME280;23599;50.304;18.928;2022-10-13T00:36:37;102616.80;;;7.94;71.21
37758;BME280;23599;50.304;18.928;2022-10-13T00:36:50;102604.23;;;7.93;71.09
37758;BME280;23599;50.304;18.928;2022-10-13T00:37:03;102608.77;;;7.93;70.99
37758;BME280;23599;50.304;18.928;2022-10-13T00:37:08;102601.52;;;7.93;70.98
37758;BME280;23599;50.304;18.928;2022-10-13T00:37:23;102605.97;;;7.94;70.93
37758;BME280;23599;50.304;18.928;2022-10-13T00:37:36;102610.51;;;7.94;70.85
37758;BME280;23599;50.304;18.928;2022-10-13T00:37:50;102603.36;;;7.93;70.74
37758;BME280;23599;50.304;18.928;2022-10-13T00:38:04;102605.97;;;7.94;70.63
37758;BME280;23599;50.304;18.928;2022-10-13T00:38:19;102610.51;;;7.94;70.51
37758;BME280;23599;50.304;18.928;2022-10-13T00:38:21;102608.68;;;7.94;70.48
37758;BME280;23599;50.304;18.928;2022-10-13T00:38:35;102611.48;;;7.93;70.40
37758;BME280;23599;50.304;18.928;2022-10-13T00:38:47;102611.48;;;7.93;70.29
37758;BME280;23599;50.304;18.928;2022-10-13T00:39:00;102605.16;;;7.92;70.20
37758;BME280;23599;50.304;18.928;2022-10-13T00:39:13;102604.30;;;7.91;70.11
37758;BME280;23599;50.304;18.928;2022-10-13T00:39:27;102606.99;;;7.91;70.01
37758;BME280;23599;50.304;18.928;2022-10-13T00:39:40;102605.27;;;7.90;69.91
37758;BME280;23599;50.304;18.928;2022-10-13T00:39:53;102607.97;;;7.90;69.83
37758;BME280;23599;50.304;18.928;2022-10-13T00:40:06;102600.72;;;7.91;69.76
37758;BME280;23599;50.304;18.928;2022-10-13T00:40:19;102613.39;;;7.90;69.68
37758;BME280;23599;50.304;18.928;2022-10-13T00:40:32;102600.80;;;7.89;69.61
37758;BME280;23599;50.304;18.928;2022-10-13T00:40:51;102603.49;;;7.89;69.54
37758;BME280;23599;50.304;18.928;2022-10-13T00:41:05;102607.10;;;7.90;69.51
37758;BME280;23599;50.304;18.928;2022-10-13T00:41:20;102604.45;;;7.88;69.45
37758;BME280;23599;50.304;18.928;2022-10-13T00:41:33;102604.45;;;7.88;69.40
37758;BME280;23599;50.304;18.928;2022-10-13T00:41:35;102595.70;;;7.83;69.38
37758;BME280;23599;50.304;18.928;2022-10-13T00:41:48;102605.34;;;7.89;69.33
37758;BME280;23599;50.304;18.928;2022-10-13T00:42:01;102602.72;;;7.87;69.26
37758;BME280;23599;50.304;18.928;2022-10-13T00:42:14;102600.02;;;7.87;69.21
37758;BME280;23599;50.304;18.928;2022-10-13T00:42:26;102609.02;;;7.88;69.13
37758;BME280;23599;50.304;18.928;2022-10-13T00:42:31;102607.24;;;7.87;69.15
37758;BME280;23599;50.304;18.928;2022-10-13T00:42:35;102600.89;;;7.88;68.95
37758;BME280;23599;50.304;18.928;2022-10-13T00:42:48;102607.18;;;7.88;69.08
37758;BME280;23599;50.304;18.928;2022-10-13T00:43:01;102605.43;;;7.87;69.04
37758;BME280;23599;50.304;18.928;2022-10-13T00:43:19;102602.72;;;7.87;68.98
37758;BME280;23599;50.304;18.928;2022-10-13T00:44:03;102604.53;;;7.87;68.91
37758;BME280;23599;50.304;18.928;2022-10-13T00:45:09;102598.42;;;7.83;68.68
37758;BME280;23599;50.304;18.928;2022-10-13T00:45:26;102598.48;;;7.82;68.63
37758;BME280;23599;50.304;18.928;2022-10-13T00:45:40;102602.17;;;7.81;68.57
37758;BME280;23599;50.304;18.928;2022-10-13T00:45:53;102603.04;;;7.81;68.56
37758;BME280;23599;50.304;18.928;2022-10-13T00:46:06;102603.04;;;7.81;68.55
37758;BME280;23599;50.304;18.928;2022-10-13T00:46:20;102595.01;;;7.80;68.53
37758;BME280;23599;50.304;18.928;2022-10-13T00:46:35;102592.38;;;7.78;68.51
37758;BME280;23599;50.304;18.928;2022-10-13T00:46:48;102598.66;;;7.79;68.55
37758;BME280;23599;50.304;18.928;2022-10-13T00:47:02;102601.48;;;7.77;68.56
37758;BME280;23599;50.304;18.928;2022-10-13T00:47:15;102599.63;;;7.78;68.62
37758;BME280;23599;50.304;18.928;2022-10-13T00:47:33;102596.05;;;7.77;68.65
37758;BME280;23599;50.304;18.928;2022-10-13T00:47:51;102601.54;;;7.76;68.67
37758;BME280;23599;50.304;18.928;2022-10-13T00:48:05;102596.12;;;7.76;68.67
37758;BME280;23599;50.304;18.928;2022-10-13T00:48:07;102598.83;;;7.76;68.67
37758;BME280;23599;50.304;18.928;2022-10-13T00:48:27;102599.79;;;7.75;68.66
37758;BME280;23599;50.304;18.928;2022-10-13T00:48:33;102599.79;;;7.75;68.52
37758;BME280;23599;50.304;18.928;2022-10-13T00:48:39;102589.04;;;7.73;68.71
37758;BME280;23599;50.304;18.928;2022-10-13T00:48:53;102602.41;;;7.76;68.66
37758;BME280;23599;50.304;18.928;2022-10-13T00:49:09;102597.96;;;7.75;68.64
37758;BME280;23599;50.304;18.928;2022-10-13T00:49:23;102601.70;;;7.73;68.64
37758;BME280;23599;50.304;18.928;2022-10-13T00:49:37;102596.29;;;7.73;68.62
37758;BME280;23599;50.304;18.928;2022-10-13T00:49:51;102596.29;;;7.73;68.59
37758;BME280;23599;50.304;18.928;2022-10-13T00:50:09;102599.00;;;7.73;68.60
37758;BME280;23599;50.304;18.928;2022-10-13T00:50:28;102592.71;;;7.72;68.65
37758;BME280;23599;50.304;18.928;2022-10-13T00:50:42;102599.00;;;7.73;68.66
37758;BME280;23599;50.304;18.928;2022-10-13T00:50:55;102599.00;;;7.73;68.65
37758;BME280;23599;50.304;18.928;2022-10-13T00:51:12;102597.25;;;7.72;68.65
37758;BME280;23599;50.304;18.928;2022-10-13T00:51:18;102596.29;;;7.73;68.66
37758;BME280;23599;50.304;18.928;2022-10-13T00:51:39;102602.67;;;7.72;68.62
37758;BME280;23599;50.304;18.928;2022-10-13T00:51:53;102599.96;;;7.72;68.66
37758;BME280;23599;50.304;18.928;2022-10-13T00:52:06;102599.96;;;7.72;68.66
37758;BME280;23599;50.304;18.928;2022-10-13T00:52:20;102601.77;;;7.71;68.64
37758;BME280;23599;50.304;18.928;2022-10-13T00:52:34;102601.77;;;7.71;68.66
37758;BME280;23599;50.304;18.928;2022-10-13T00:52:41;102595.49;;;7.70;68.59
37758;BME280;23599;50.304;18.928;2022-10-13T00:52:55;102603.60;;;7.70;68.67
37758;BME280;23599;50.304;18.928;2022-10-13T00:53:11;102603.60;;;7.70;68.68
37758;BME280;23599;50.304;18.928;2022-10-13T00:53:19;102607.19;;;7.71;68.75
37758;BME280;23599;50.304;18.928;2022-10-13T00:53:36;102603.60;;;7.70;68.70
37758;BME280;23599;50.304;18.928;2022-10-13T00:53:50;102603.60;;;7.70;68.72
37758;BME280;23599;50.304;18.928;2022-10-13T00:54:06;102602.67;;;7.72;68.72
37758;BME280;23599;50.304;18.928;2022-10-13T00:54:23;102595.49;;;7.70;68.71
37758;BME280;23599;50.304;18.928;2022-10-13T00:54:25;102606.32;;;7.70;68.71
37758;BME280;23599;50.304;18.928;2022-10-13T00:54:38;102608.08;;;7.72;68.73
37758;BME280;23599;50.304;18.928;2022-10-13T00:54:52;102604.58;;;7.69;68.74
37758;BME280;23599;50.304;18.928;2022-10-13T00:55:08;102602.75;;;7.70;68.74
37758;BME280;23599;50.304;18.928;2022-10-13T00:55:26;102600.91;;;7.70;68.75
37758;BME280;23599;50.304;18.928;2022-10-13T00:55:39;102601.00;;;7.69;68.78
37758;BME280;23599;50.304;18.928;2022-10-13T00:55:54;102608.23;;;7.68;68.75
37758;BME280;23599;50.304;18.928;2022-10-13T00:56:09;102609.13;;;7.69;68.76
37758;BME280;23599;50.304;18.928;2022-10-13T00:56:27;102602.80;;;7.68;68.73
37758;BME280;23599;50.304;18.928;2022-10-13T00:56:42;102604.64;;;7.68;68.78
37758;BME280;23599;50.304;18.928;2022-10-13T00:56:55;102606.48;;;7.67;68.80
37758;BME280;23599;50.304;18.928;2022-10-13T00:57:09;102608.23;;;7.68;68.82
37758;BME280;23599;50.304;18.928;2022-10-13T00:57:22;102605.51;;;7.68;68.96
37758;BME280;23599;50.304;18.928;2022-10-13T00:57:38;102599.23;;;7.68;68.84
37758;BME280;23599;50.304;18.928;2022-10-13T00:57:43;102605.62;;;7.67;68.84
37758;BME280;23599;50.304;18.928;2022-10-13T00:58:00;102606.48;;;7.67;68.84
37758;BME280;23599;50.304;18.928;2022-10-13T00:58:07;102603.78;;;7.67;68.97
37758;BME280;23599;50.304;18.928;2022-10-13T00:58:46;102607.45;;;7.66;68.77
37758;BME280;23599;50.304;18.928;2022-10-13T00:59:01;102602.04;;;7.66;68.76
37758;BME280;23599;50.304;18.928;2022-10-13T00:59:22;102602.10;;;7.65;68.75
37758;BME280;23599;50.304;18.928;2022-10-13T00:59:40;102608.50;;;7.64;68.77
37758;BME280;23599;50.304;18.928;2022-10-13T00:59:53;102604.88;;;7.63;68.76
37758;BME280;23599;50.304;18.928;2022-10-13T01:00:07;102608.55;;;7.62;68.76
37758;BME280;23599;50.304;18.928;2022-10-13T01:00:24;102607.69;;;7.62;68.78
37758;BME280;23599;50.304;18.928;2022-10-13T01:00:37;102603.21;;;7.61;68.69
37758;BME280;23599;50.304;18.928;2022-10-13T01:00:51;102606.82;;;7.61;68.87
37758;BME280;23599;50.304;18.928;2022-10-13T01:00:53;102604.10;;;7.61;68.88
37758;BME280;23599;50.304;18.928;2022-10-13T01:01:06;102606.82;;;7.61;68.92
37758;BME280;23599;50.304;18.928;2022-10-13T01:01:19;102601.48;;;7.60;68.92
37758;BME280;23599;50.304;18.928;2022-10-13T01:01:32;102609.59;;;7.60;68.93
37758;BME280;23599;50.304;18.928;2022-10-13T01:01:51;102602.33;;;7.60;68.92
37758;BME280;23599;50.304;18.928;2022-10-13T01:02:05;102603.32;;;7.59;68.93
37758;BME280;23599;50.304;18.928;2022-10-13T01:02:18;102605.15;;;7.59;68.93
37758;BME280;23599;50.304;18.928;2022-10-13T01:02:34;102609.70;;;7.58;68.94
37758;BME280;23599;50.304;18.928;2022-10-13T01:02:47;102601.58;;;7.58;68.96
37758;BME280;23599;50.304;18.928;2022-10-13T01:03:01;102604.27;;;7.58;68.97
37758;BME280;23599;50.304;18.928;2022-10-13T01:03:15;102602.50;;;7.57;68.99
37758;BME280;23599;50.304;18.928;2022-10-13T01:03:28;102609.75;;;7.57;69.00
37758;BME280;23599;50.304;18.928;2022-10-13T01:03:41;102607.05;;;7.57;68.99
37758;BME280;23599;50.304;18.928;2022-10-13T01:03:55;102598.07;;;7.56;69.01
37758;BME280;23599;50.304;18.928;2022-10-13T01:03:57;102599.00;;;7.55;69.03
37758;BME280;23599;50.304;18.928;2022-10-13T01:04:10;102599.91;;;7.56;69.04
37758;BME280;23599;50.304;18.928;2022-10-13T01:04:27;102598.13;;;7.55;68.93
37758;BME280;23599;50.304;18.928;2022-10-13T01:04:45;102602.60;;;7.56;69.06
37758;BME280;23599;50.304;18.928;2022-10-13T01:04:59;102602.60;;;7.56;69.07
37758;BME280;23599;50.304;18.928;2022-10-13T01:05:14;102596.29;;;7.55;69.18
37758;BME280;23599;50.304;18.928;2022-10-13T01:05:29;102600.83;;;7.55;69.05
37758;BME280;23599;50.304;18.928;2022-10-13T01:05:42;102602.67;;;7.54;69.05
37758;BME280;23599;50.304;18.928;2022-10-13T01:05:59;102601.80;;;7.54;69.06
37758;BME280;23599;50.304;18.928;2022-10-13T01:06:14;102605.38;;;7.54;69.08
37758;BME280;23599;50.304;18.928;2022-10-13T01:06:29;102601.71;;;7.55;69.11
37758;BME280;23599;50.304;18.928;2022-10-13T01:06:42;102607.12;;;7.55;69.11
37758;BME280;23599;50.304;18.928;2022-10-13T01:06:56;102599.98;;;7.54;69.09
37758;BME280;23599;50.304;18.928;2022-10-13T01:06:59;102604.41;;;7.55;69.10
37758;BME280;23599;50.304;18.928;2022-10-13T01:07:03;102599.98;;;7.54;69.08
37758;BME280;23599;50.304;18.928;2022-10-13T01:07:18;102596.40;;;7.54;69.09
37758;BME280;23599;50.304;18.928;2022-10-13T01:07:33;102596.40;;;7.54;69.06
37758;BME280;23599;50.304;18.928;2022-10-13T01:07:48;102603.64;;;7.53;69.03
37758;BME280;23599;50.304;18.928;2022-10-13T01:08:00;102598.29;;;7.52;68.88
37758;BME280;23599;50.304;18.928;2022-10-13T01:08:15;102594.63;;;7.53;69.01
37758;BME280;23599;50.304;18.928;2022-10-13T01:08:29;102603.70;;;7.52;69.00
37758;BME280;23599;50.304;18.928;2022-10-13T01:08:43;102602.83;;;7.51;69.01
37758;BME280;23599;50.304;18.928;2022-10-13T01:08:56;102597.50;;;7.50;69.04
37758;BME280;23599;50.304;18.928;2022-10-13T01:09:08;102594.73;;;7.51;69.07
37758;BME280;23599;50.304;18.928;2022-10-13T01:09:21;102594.73;;;7.51;69.12